sensor_id;sensor_type;location;lat;lon;timestamp;P1;durP1;ratioP1;P2;durP2;ratioP2
65998;SDS011;52766;56.008;37.440;2023-06-14T00:01:09;8.50;;;3.97;;
65998;SDS011;52766;56.008;37.440;2023-06-14T00:03:35;8.80;;;3.65;;
65998;SDS011;52766;56.008;37.440;2023-06-14T00:06:02;9.20;;;4.00;;
65998;SDS011;52766;56.008;37.440;2023-06-14T00:08:28;11.00;;;4.60;;
65998;SDS011;52766;56.008;37.440;2023-06-14T00:10:54;9.15;;;4.10;;
65998;SDS011;52766;56.008;37.440;2023-06-14T00:13:21;8.65;;;4.43;;
65998;SDS011;52766;56.008;37.440;2023-06-14T00:15:47;8.88;;;3.85;;
65998;SDS011;52766;56.008;37.440;2023-06-14T00:18:22;10.30;;;4.53;;
65998;SDS011;52766;56.008;37.440;2023-06-14T00:20:52;11.02;;;4.13;;
65998;SDS011;52766;56.008;37.440;2023-06-14T00:23:22;10.65;;;5.03;;
65998;SDS011;52766;56.008;37.440;2023-06-14T00:25:49;9.90;;;5.57;;
65998;SDS011;52766;56.008;37.440;2023-06-14T00:28:21;12.90;;;4.90;;
65998;SDS011;52766;56.008;37.440;2023-06-14T00:30:48;13.65;;;4.60;;
65998;SDS011;52766;56.008;37.440;2023-06-14T00:33:14;7.95;;;4.13;;
65998;SDS011;52766;56.008;37.440;2023-06-14T00:35:42;13.25;;;4.88;;
65998;SDS011;52766;56.008;37.440;2023-06-14T00:38:08;9.15;;;4.45;;
65998;SDS011;52766;56.008;37.440;2023-06-14T00:40:34;14.27;;;5.38;;
65998;SDS011;52766;56.008;37.440;2023-06-14T00:43:03;13.68;;;5.78;;
65998;SDS011;52766;56.008;37.440;2023-06-14T00:45:31;16.20;;;6.57;;
65998;SDS011;52766;56.008;37.440;2023-06-14T00:48:03;11.10;;;5.78;;
65998;SDS011;52766;56.008;37.440;2023-06-14T00:50:32;10.18;;;4.40;;
65998;SDS011;52766;56.008;37.440;2023-06-14T00:52:59;8.60;;;4.10;;
65998;SDS011;52766;56.008;37.440;2023-06-14T00:55:28;10.15;;;4.18;;
65998;SDS011;52766;56.008;37.440;2023-06-14T00:57:55;10.05;;;4.85;;
65998;SDS011;52766;56.008;37.440;2023-06-14T01:00:21;11.30;;;6.20;;
65998;SDS011;52766;56.008;37.440;2023-06-14T01:02:49;15.40;;;6.00;;
65998;SDS011;52766;56.008;37.440;2023-06-14T01:05:15;9.77;;;5.20;;
65998;SDS011;52766;56.008;37.440;2023-06-14T01:10:47;11.52;;;5.32;;
65998;SDS011;52766;56.008;37.440;2023-06-14T01:13:32;10.25;;;4.80;;
65998;SDS011;52766;56.008;37.440;2023-06-14T01:16:00;14.80;;;5.03;;
65998;SDS011;52766;56.008;37.440;2023-06-14T01:18:33;10.85;;;4.75;;
65998;SDS011;52766;56.008;37.440;2023-06-14T01:21:01;11.02;;;4.85;;
65998;SDS011;52766;56.008;37.440;2023-06-14T01:23:50;11.73;;;4.53;;
65998;SDS011;52766;56.008;37.440;2023-06-14T01:26:21;7.90;;;4.03;;
65998;SDS011;52766;56.008;37.440;2023-06-14T01:28:48;7.53;;;3.55;;
65998;SDS011;52766;56.008;37.440;2023-06-14T01:31:17;8.13;;;4.15;;
65998;SDS011;52766;56.008;37.440;2023-06-14T01:33:49;9.43;;;4.20;;
65998;SDS011;52766;56.008;37.440;2023-06-14T01:36:16;7.22;;;3.58;;
65998;SDS011;52766;56.008;37.440;2023-06-14T01:38:44;10.35;;;3.72;;
65998;SDS011;52766;56.008;37.440;2023-06-14T01:41:10;8.40;;;4.10;;
65998;SDS011;52766;56.008;37.440;2023-06-14T01:43:37;8.38;;;3.78;;
65998;SDS011;52766;56.008;37.440;2023-06-14T01:46:05;7.57;;;4.15;;
65998;SDS011;52766;56.008;37.440;2023-06-14T01:48:32;26.05;;;9.05;;
65998;SDS011;52766;56.008;37.440;2023-06-14T01:50:58;44.45;;;15.73;;
65998;SDS011;52766;56.008;37.440;2023-06-14T01:53:25;74.65;;;24.15;;
65998;SDS011;52766;56.008;37.440;2023-06-14T01:55:56;46.45;;;17.02;;
65998;SDS011;52766;56.008;37.440;2023-06-14T01:58:22;42.17;;;15.15;;
65998;SDS011;52766;56.008;37.440;2023-06-14T02:00:51;32.97;;;11.65;;
65998;SDS011;52766;56.008;37.440;2023-06-14T02:03:21;35.00;;;11.07;;
65998;SDS011;52766;56.008;37.440;2023-06-14T02:05:49;30.75;;;10.23;;
65998;SDS011;52766;56.008;37.440;2023-06-14T02:08:16;25.30;;;10.90;;
65998;SDS011;52766;56.008;37.440;2023-06-14T02:11:09;26.38;;;9.55;;
65998;SDS011;52766;56.008;37.440;2023-06-14T02:13:50;28.15;;;10.57;;
65998;SDS011;52766;56.008;37.440;2023-06-14T02:16:23;23.60;;;9.77;;
65998;SDS011;52766;56.008;37.440;2023-06-14T02:19:06;25.67;;;9.15;;
65998;SDS011;52766;56.008;37.440;2023-06-14T02:21:36;20.25;;;8.93;;
65998;SDS011;52766;56.008;37.440;2023-06-14T02:24:04;23.10;;;8.70;;
65998;SDS011;52766;56.008;37.440;2023-06-14T02:26:34;22.73;;;8.57;;
65998;SDS011;52766;56.008;37.440;2023-06-14T02:29:14;19.67;;;8.32;;
65998;SDS011;52766;56.008;37.440;2023-06-14T02:31:44;19.38;;;7.65;;
65998;SDS011;52766;56.008;37.440;2023-06-14T02:34:22;17.98;;;7.50;;
65998;SDS011;52766;56.008;37.440;2023-06-14T02:43:10;20.67;;;9.05;;
65998;SDS011;52766;56.008;37.440;2023-06-14T02:45:42;20.77;;;8.18;;
65998;SDS011;52766;56.008;37.440;2023-06-14T02:48:22;20.70;;;10.32;;
65998;SDS011;52766;56.008;37.440;2023-06-14T02:50:48;20.65;;;10.27;;
65998;SDS011;52766;56.008;37.440;2023-06-14T02:53:44;26.40;;;12.35;;
65998;SDS011;52766;56.008;37.440;2023-06-14T02:56:45;25.88;;;13.35;;
65998;SDS011;52766;56.008;37.440;2023-06-14T03:02:26;23.98;;;11.10;;
65998;SDS011;52766;56.008;37.440;2023-06-14T03:04:57;21.83;;;11.95;;
65998;SDS011;52766;56.008;37.440;2023-06-14T03:07:34;20.67;;;10.38;;
65998;SDS011;52766;56.008;37.440;2023-06-14T03:15:53;16.30;;;7.75;;
65998;SDS011;52766;56.008;37.440;2023-06-14T03:21:44;16.40;;;9.93;;
65998;SDS011;52766;56.008;37.440;2023-06-14T03:24:39;13.93;;;7.80;;
65998;SDS011;52766;56.008;37.440;2023-06-14T03:35:24;14.07;;;5.90;;
65998;SDS011;52766;56.008;37.440;2023-06-14T03:38:57;12.88;;;6.00;;
65998;SDS011;52766;56.008;37.440;2023-06-14T03:41:30;12.10;;;6.13;;
65998;SDS011;52766;56.008;37.440;2023-06-14T03:43:59;13.98;;;6.28;;
65998;SDS011;52766;56.008;37.440;2023-06-14T03:46:29;11.88;;;5.28;;
65998;SDS011;52766;56.008;37.440;2023-06-14T03:49:00;10.27;;;5.05;;
65998;SDS011;52766;56.008;37.440;2023-06-14T03:51:26;8.50;;;4.72;;
65998;SDS011;52766;56.008;37.440;2023-06-14T03:53:56;14.95;;;5.05;;
65998;SDS011;52766;56.008;37.440;2023-06-14T03:56:35;8.23;;;4.82;;
65998;SDS011;52766;56.008;37.440;2023-06-14T03:59:03;12.15;;;5.57;;
65998;SDS011;52766;56.008;37.440;2023-06-14T04:01:35;8.93;;;5.05;;
65998;SDS011;52766;56.008;37.440;2023-06-14T04:04:12;11.13;;;5.07;;
65998;SDS011;52766;56.008;37.440;2023-06-14T04:06:45;9.85;;;5.05;;
65998;SDS011;52766;56.008;37.440;2023-06-14T04:09:15;8.45;;;4.57;;
65998;SDS011;52766;56.008;37.440;2023-06-14T04:11:41;10.32;;;4.57;;
65998;SDS011;52766;56.008;37.440;2023-06-14T04:14:35;10.23;;;4.78;;
65998;SDS011;52766;56.008;37.440;2023-06-14T04:19:58;6.82;;;4.20;;
65998;SDS011;52766;56.008;37.440;2023-06-14T04:22:47;8.20;;;3.88;;
65998;SDS011;52766;56.008;37.440;2023-06-14T04:25:20;8.63;;;4.13;;
65998;SDS011;52766;56.008;37.440;2023-06-14T04:40:10;9.52;;;5.38;;
65998;SDS011;52766;56.008;37.440;2023-06-14T04:47:23;9.23;;;4.60;;
65998;SDS011;52766;56.008;37.440;2023-06-14T04:50:24;14.95;;;4.72;;
65998;SDS011;52766;56.008;37.440;2023-06-14T04:53:11;10.05;;;4.40;;
65998;SDS011;52766;56.008;37.440;2023-06-14T04:56:21;9.45;;;5.20;;
65998;SDS011;52766;56.008;37.440;2023-06-14T04:59:08;9.35;;;4.03;;
65998;SDS011;52766;56.008;37.440;2023-06-14T05:05:20;9.77;;;4.55;;
65998;SDS011;52766;56.008;37.440;2023-06-14T05:07:51;9.77;;;3.80;;
65998;SDS011;52766;56.008;37.440;2023-06-14T05:10:33;7.90;;;3.50;;
65998;SDS011;52766;56.008;37.440;2023-06-14T05:16:32;5.90;;;3.85;;
65998;SDS011;52766;56.008;37.440;2023-06-14T05:19:13;7.47;;;3.55;;
65998;SDS011;52766;56.008;37.440;2023-06-14T05:21:45;7.20;;;3.17;;
65998;SDS011;52766;56.008;37.440;2023-06-14T05:24:14;8.77;;;3.80;;
65998;SDS011;52766;56.008;37.440;2023-06-14T05:27:13;7.45;;;3.63;;
65998;SDS011;52766;56.008;37.440;2023-06-14T05:29:42;7.88;;;3.15;;
65998;SDS011;52766;56.008;37.440;2023-06-14T05:32:17;8.50;;;3.47;;
65998;SDS011;52766;56.008;37.440;2023-06-14T05:34:46;5.30;;;2.70;;
65998;SDS011;52766;56.008;37.440;2023-06-14T05:37:15;5.28;;;3.35;;
65998;SDS011;52766;56.008;37.440;2023-06-14T05:39:55;7.85;;;3.22;;
65998;SDS011;52766;56.008;37.440;2023-06-14T05:42:24;7.60;;;2.80;;
65998;SDS011;52766;56.008;37.440;2023-06-14T05:45:03;6.45;;;3.08;;
65998;SDS011;52766;56.008;37.440;2023-06-14T05:47:33;7.50;;;3.15;;
65998;SDS011;52766;56.008;37.440;2023-06-14T05:50:54;5.18;;;2.95;;
65998;SDS011;52766;56.008;37.440;2023-06-14T05:53:20;6.53;;;3.28;;
65998;SDS011;52766;56.008;37.440;2023-06-14T05:55:46;10.98;;;3.70;;
65998;SDS011;52766;56.008;37.440;2023-06-14T05:58:12;7.05;;;2.90;;
65998;SDS011;52766;56.008;37.440;2023-06-14T06:00:48;8.73;;;3.15;;
65998;SDS011;52766;56.008;37.440;2023-06-14T06:03:14;8.63;;;3.28;;
65998;SDS011;52766;56.008;37.440;2023-06-14T06:05:40;6.75;;;3.47;;
65998;SDS011;52766;56.008;37.440;2023-06-14T06:08:10;10.43;;;3.67;;
65998;SDS011;52766;56.008;37.440;2023-06-14T06:11:29;4.85;;;2.70;;
65998;SDS011;52766;56.008;37.440;2023-06-14T06:14:24;8.55;;;3.08;;
65998;SDS011;52766;56.008;37.440;2023-06-14T06:16:50;6.60;;;3.22;;
65998;SDS011;52766;56.008;37.440;2023-06-14T06:19:24;7.22;;;2.95;;
65998;SDS011;52766;56.008;37.440;2023-06-14T06:21:51;5.95;;;3.15;;
65998;SDS011;52766;56.008;37.440;2023-06-14T06:24:24;6.18;;;3.03;;
65998;SDS011;52766;56.008;37.440;2023-06-14T06:26:50;4.43;;;2.80;;
65998;SDS011;52766;56.008;37.440;2023-06-14T06:29:16;5.25;;;3.10;;
65998;SDS011;52766;56.008;37.440;2023-06-14T06:31:42;4.82;;;2.80;;
65998;SDS011;52766;56.008;37.440;2023-06-14T06:34:11;6.32;;;2.90;;
65998;SDS011;52766;56.008;37.440;2023-06-14T06:36:40;4.30;;;2.50;;
65998;SDS011;52766;56.008;37.440;2023-06-14T06:39:07;5.75;;;2.88;;
65998;SDS011;52766;56.008;37.440;2023-06-14T06:41:38;4.80;;;2.92;;
65998;SDS011;52766;56.008;37.440;2023-06-14T06:46:36;6.10;;;2.63;;
65998;SDS011;52766;56.008;37.440;2023-06-14T06:49:06;6.40;;;3.00;;
65998;SDS011;52766;56.008;37.440;2023-06-14T06:51:34;4.63;;;2.58;;
65998;SDS011;52766;56.008;37.440;2023-06-14T06:54:02;4.72;;;2.75;;
65998;SDS011;52766;56.008;37.440;2023-06-14T06:56:30;6.00;;;2.63;;
65998;SDS011;52766;56.008;37.440;2023-06-14T06:58:57;5.47;;;2.42;;
65998;SDS011;52766;56.008;37.440;2023-06-14T07:01:28;6.50;;;2.92;;
65998;SDS011;52766;56.008;37.440;2023-06-14T07:03:54;5.13;;;2.65;;
65998;SDS011;52766;56.008;37.440;2023-06-14T07:06:21;5.60;;;2.78;;
65998;SDS011;52766;56.008;37.440;2023-06-14T07:08:52;4.45;;;2.33;;
65998;SDS011;52766;56.008;37.440;2023-06-14T07:11:18;7.45;;;3.17;;
65998;SDS011;52766;56.008;37.440;2023-06-14T07:13:46;6.93;;;2.70;;
65998;SDS011;52766;56.008;37.440;2023-06-14T07:16:12;4.72;;;2.67;;
65998;SDS011;52766;56.008;37.440;2023-06-14T07:18:41;5.03;;;2.75;;
65998;SDS011;52766;56.008;37.440;2023-06-14T07:21:07;5.63;;;3.03;;
65998;SDS011;52766;56.008;37.440;2023-06-14T07:23:34;6.93;;;3.13;;
65998;SDS011;52766;56.008;37.440;2023-06-14T07:26:00;7.20;;;2.85;;
65998;SDS011;52766;56.008;37.440;2023-06-14T07:28:31;4.70;;;3.10;;
65998;SDS011;52766;56.008;37.440;2023-06-14T07:30:57;10.55;;;3.25;;
65998;SDS011;52766;56.008;37.440;2023-06-14T07:33:23;4.95;;;2.85;;
65998;SDS011;52766;56.008;37.440;2023-06-14T07:35:52;5.45;;;2.83;;
65998;SDS011;52766;56.008;37.440;2023-06-14T07:38:22;7.35;;;2.97;;
65998;SDS011;52766;56.008;37.440;2023-06-14T07:40:48;5.00;;;3.17;;
65998;SDS011;52766;56.008;37.440;2023-06-14T07:43:14;5.88;;;3.63;;
65998;SDS011;52766;56.008;37.440;2023-06-14T07:45:42;6.30;;;3.00;;
65998;SDS011;52766;56.008;37.440;2023-06-14T07:48:09;8.05;;;3.15;;
65998;SDS011;52766;56.008;37.440;2023-06-14T07:50:38;6.93;;;3.33;;
65998;SDS011;52766;56.008;37.440;2023-06-14T07:53:08;5.25;;;3.10;;
65998;SDS011;52766;56.008;37.440;2023-06-14T07:55:35;7.07;;;3.35;;
65998;SDS011;52766;56.008;37.440;2023-06-14T07:58:03;7.63;;;3.22;;
65998;SDS011;52766;56.008;37.440;2023-06-14T08:00:29;9.60;;;3.35;;
65998;SDS011;52766;56.008;37.440;2023-06-14T08:02:58;8.60;;;3.60;;
65998;SDS011;52766;56.008;37.440;2023-06-14T08:08:30;7.43;;;2.97;;
65998;SDS011;52766;56.008;37.440;2023-06-14T08:11:14;5.18;;;3.05;;
65998;SDS011;52766;56.008;37.440;2023-06-14T08:17:46;7.65;;;3.40;;
65998;SDS011;52766;56.008;37.440;2023-06-14T08:20:14;6.90;;;3.35;;
65998;SDS011;52766;56.008;37.440;2023-06-14T08:22:43;6.80;;;2.97;;
65998;SDS011;52766;56.008;37.440;2023-06-14T08:25:10;4.93;;;3.20;;
65998;SDS011;52766;56.008;37.440;2023-06-14T08:28:08;6.72;;;3.05;;
65998;SDS011;52766;56.008;37.440;2023-06-14T08:30:37;6.00;;;4.05;;
65998;SDS011;52766;56.008;37.440;2023-06-14T08:33:04;6.70;;;3.00;;
65998;SDS011;52766;56.008;37.440;2023-06-14T08:38:34;8.70;;;3.20;;
65998;SDS011;52766;56.008;37.440;2023-06-14T08:41:00;22.85;;;11.80;;
65998;SDS011;52766;56.008;37.440;2023-06-14T08:43:32;6.85;;;3.28;;
65998;SDS011;52766;56.008;37.440;2023-06-14T08:46:02;6.07;;;3.17;;
65998;SDS011;52766;56.008;37.440;2023-06-14T08:48:29;17.27;;;8.75;;
65998;SDS011;52766;56.008;37.440;2023-06-14T08:50:59;6.15;;;3.50;;
65998;SDS011;52766;56.008;37.440;2023-06-14T08:53:32;5.85;;;3.85;;
65998;SDS011;52766;56.008;37.440;2023-06-14T08:55:59;5.85;;;2.72;;
65998;SDS011;52766;56.008;37.440;2023-06-14T08:58:29;6.70;;;3.60;;
65998;SDS011;52766;56.008;37.440;2023-06-14T09:00:58;8.93;;;3.45;;
65998;SDS011;52766;56.008;37.440;2023-06-14T09:03:25;6.35;;;3.45;;
65998;SDS011;52766;56.008;37.440;2023-06-14T09:06:03;6.57;;;3.22;;
65998;SDS011;52766;56.008;37.440;2023-06-14T09:08:29;5.70;;;3.33;;
65998;SDS011;52766;56.008;37.440;2023-06-14T09:10:57;7.13;;;3.10;;
65998;SDS011;52766;56.008;37.440;2023-06-14T09:13:26;6.57;;;2.88;;
65998;SDS011;52766;56.008;37.440;2023-06-14T09:16:09;4.57;;;2.50;;
65998;SDS011;52766;56.008;37.440;2023-06-14T09:18:36;5.78;;;3.13;;
65998;SDS011;52766;56.008;37.440;2023-06-14T09:21:15;9.98;;;3.90;;
65998;SDS011;52766;56.008;37.440;2023-06-14T09:23:48;6.78;;;3.22;;
65998;SDS011;52766;56.008;37.440;2023-06-14T09:26:15;6.05;;;3.08;;
65998;SDS011;52766;56.008;37.440;2023-06-14T09:29:04;5.90;;;3.30;;
65998;SDS011;52766;56.008;37.440;2023-06-14T09:31:31;5.95;;;3.55;;
65998;SDS011;52766;56.008;37.440;2023-06-14T09:33:58;7.80;;;3.70;;
65998;SDS011;52766;56.008;37.440;2023-06-14T09:36:30;4.68;;;3.00;;
65998;SDS011;52766;56.008;37.440;2023-06-14T09:38:59;7.07;;;3.17;;
65998;SDS011;52766;56.008;37.440;2023-06-14T09:41:37;6.35;;;3.45;;
65998;SDS011;52766;56.008;37.440;2023-06-14T09:44:06;5.65;;;3.08;;
65998;SDS011;52766;56.008;37.440;2023-06-14T09:46:33;6.43;;;3.13;;
65998;SDS011;52766;56.008;37.440;2023-06-14T09:49:00;9.38;;;3.60;;
65998;SDS011;52766;56.008;37.440;2023-06-14T09:51:28;7.32;;;3.65;;
65998;SDS011;52766;56.008;37.440;2023-06-14T09:54:00;6.38;;;3.22;;
65998;SDS011;52766;56.008;37.440;2023-06-14T09:56:32;6.05;;;3.00;;
65998;SDS011;52766;56.008;37.440;2023-06-14T09:59:04;5.60;;;2.95;;
65998;SDS011;52766;56.008;37.440;2023-06-14T10:01:38;5.35;;;2.78;;
65998;SDS011;52766;56.008;37.440;2023-06-14T10:04:07;6.15;;;3.28;;
65998;SDS011;52766;56.008;37.440;2023-06-14T10:06:45;6.22;;;3.28;;
65998;SDS011;52766;56.008;37.440;2023-06-14T10:09:13;7.43;;;3.40;;
65998;SDS011;52766;56.008;37.440;2023-06-14T10:11:40;6.00;;;3.10;;
65998;SDS011;52766;56.008;37.440;2023-06-14T10:14:10;6.05;;;3.15;;
65998;SDS011;52766;56.008;37.440;2023-06-14T10:29:31;5.95;;;3.13;;
65998;SDS011;52766;56.008;37.440;2023-06-14T10:41:00;7.78;;;4.68;;
65998;SDS011;52766;56.008;37.440;2023-06-14T10:43:30;7.82;;;3.50;;
65998;SDS011;52766;56.008;37.440;2023-06-14T10:46:16;9.10;;;4.30;;
65998;SDS011;52766;56.008;37.440;2023-06-14T10:48:49;6.55;;;3.20;;
65998;SDS011;52766;56.008;37.440;2023-06-14T10:51:38;4.60;;;2.63;;
65998;SDS011;52766;56.008;37.440;2023-06-14T10:54:20;5.22;;;3.42;;
65998;SDS011;52766;56.008;37.440;2023-06-14T11:04:54;5.28;;;3.10;;
65998;SDS011;52766;56.008;37.440;2023-06-14T11:07:48;6.30;;;3.05;;
65998;SDS011;52766;56.008;37.440;2023-06-14T11:10:43;3.90;;;2.60;;
65998;SDS011;52766;56.008;37.440;2023-06-14T11:13:20;5.38;;;3.25;;
65998;SDS011;52766;56.008;37.440;2023-06-14T11:16:34;8.38;;;3.95;;
65998;SDS011;52766;56.008;37.440;2023-06-14T11:19:38;5.43;;;2.97;;
65998;SDS011;52766;56.008;37.440;2023-06-14T11:22:11;5.80;;;3.00;;
65998;SDS011;52766;56.008;37.440;2023-06-14T11:24:49;14.27;;;8.25;;
65998;SDS011;52766;56.008;37.440;2023-06-14T11:27:35;6.68;;;3.22;;
65998;SDS011;52766;56.008;37.440;2023-06-14T11:30:13;7.10;;;3.53;;
65998;SDS011;52766;56.008;37.440;2023-06-14T11:32:55;4.80;;;3.03;;
65998;SDS011;52766;56.008;37.440;2023-06-14T11:35:26;5.70;;;2.90;;
65998;SDS011;52766;56.008;37.440;2023-06-14T11:38:09;6.07;;;3.67;;
65998;SDS011;52766;56.008;37.440;2023-06-14T11:41:02;4.93;;;2.92;;
65998;SDS011;52766;56.008;37.440;2023-06-14T11:43:39;5.47;;;3.17;;
65998;SDS011;52766;56.008;37.440;2023-06-14T11:46:17;5.65;;;3.10;;
65998;SDS011;52766;56.008;37.440;2023-06-14T11:48:51;6.32;;;3.42;;
65998;SDS011;52766;56.008;37.440;2023-06-14T11:51:38;20.33;;;12.75;;
65998;SDS011;52766;56.008;37.440;2023-06-14T11:54:07;7.93;;;3.75;;
65998;SDS011;52766;56.008;37.440;2023-06-14T11:56:45;5.85;;;3.25;;
65998;SDS011;52766;56.008;37.440;2023-06-14T11:59:17;6.95;;;3.80;;
65998;SDS011;52766;56.008;37.440;2023-06-14T12:01:44;6.25;;;3.58;;
65998;SDS011;52766;56.008;37.440;2023-06-14T12:04:32;4.82;;;3.20;;
65998;SDS011;52766;56.008;37.440;2023-06-14T12:07:39;5.43;;;2.72;;
65998;SDS011;52766;56.008;37.440;2023-06-14T12:10:51;6.95;;;3.45;;
65998;SDS011;52766;56.008;37.440;2023-06-14T12:13:32;13.43;;;8.32;;
65998;SDS011;52766;56.008;37.440;2023-06-14T12:16:14;8.90;;;3.80;;
65998;SDS011;52766;56.008;37.440;2023-06-14T12:18:53;8.32;;;4.05;;
65998;SDS011;52766;56.008;37.440;2023-06-14T12:21:33;6.65;;;3.65;;
65998;SDS011;52766;56.008;37.440;2023-06-14T12:28:04;6.07;;;3.42;;
65998;SDS011;52766;56.008;37.440;2023-06-14T12:35:10;5.30;;;3.50;;
65998;SDS011;52766;56.008;37.440;2023-06-14T12:37:39;6.82;;;3.30;;
65998;SDS011;52766;56.008;37.440;2023-06-14T12:40:08;7.30;;;3.30;;
65998;SDS011;52766;56.008;37.440;2023-06-14T12:42:48;8.10;;;4.38;;
65998;SDS011;52766;56.008;37.440;2023-06-14T12:45:50;11.98;;;6.93;;
65998;SDS011;52766;56.008;37.440;2023-06-14T12:54:44;5.72;;;3.15;;
65998;SDS011;52766;56.008;37.440;2023-06-14T12:57:36;5.47;;;3.50;;
65998;SDS011;52766;56.008;37.440;2023-06-14T13:00:43;5.70;;;3.13;;
65998;SDS011;52766;56.008;37.440;2023-06-14T13:03:25;4.43;;;3.13;;
65998;SDS011;52766;56.008;37.440;2023-06-14T13:05:59;6.68;;;3.15;;
65998;SDS011;52766;56.008;37.440;2023-06-14T13:08:37;5.75;;;3.42;;
65998;SDS011;52766;56.008;37.440;2023-06-14T13:11:26;6.95;;;3.38;;
65998;SDS011;52766;56.008;37.440;2023-06-14T13:13:53;5.63;;;3.25;;
65998;SDS011;52766;56.008;37.440;2023-06-14T13:16:20;5.97;;;3.22;;
65998;SDS011;52766;56.008;37.440;2023-06-14T13:18:53;7.03;;;3.10;;
65998;SDS011;52766;56.008;37.440;2023-06-14T13:21:35;5.95;;;3.38;;
65998;SDS011;52766;56.008;37.440;2023-06-14T13:24:09;6.10;;;4.10;;
65998;SDS011;52766;56.008;37.440;2023-06-14T13:26:35;6.28;;;3.40;;
65998;SDS011;52766;56.008;37.440;2023-06-14T13:29:05;6.28;;;3.95;;
65998;SDS011;52766;56.008;37.440;2023-06-14T13:31:32;5.97;;;3.50;;
65998;SDS011;52766;56.008;37.440;2023-06-14T13:34:00;6.72;;;3.70;;
65998;SDS011;52766;56.008;37.440;2023-06-14T13:39:30;6.13;;;3.17;;
65998;SDS011;52766;56.008;37.440;2023-06-14T13:42:24;7.53;;;3.70;;
65998;SDS011;52766;56.008;37.440;2023-06-14T13:44:58;7.00;;;3.50;;
65998;SDS011;52766;56.008;37.440;2023-06-14T13:47:48;5.40;;;3.30;;
65998;SDS011;52766;56.008;37.440;2023-06-14T13:50:51;5.00;;;3.78;;
65998;SDS011;52766;56.008;37.440;2023-06-14T13:53:25;5.13;;;3.00;;
65998;SDS011;52766;56.008;37.440;2023-06-14T13:56:10;6.22;;;3.30;;
65998;SDS011;52766;56.008;37.440;2023-06-14T13:58:45;5.13;;;2.78;;
65998;SDS011;52766;56.008;37.440;2023-06-14T14:02:34;5.13;;;3.60;;
65998;SDS011;52766;56.008;37.440;2023-06-14T14:05:19;6.85;;;3.50;;
65998;SDS011;52766;56.008;37.440;2023-06-14T14:08:25;7.72;;;3.20;;
65998;SDS011;52766;56.008;37.440;2023-06-14T14:11:01;5.88;;;3.50;;
65998;SDS011;52766;56.008;37.440;2023-06-14T14:13:55;4.35;;;3.20;;
65998;SDS011;52766;56.008;37.440;2023-06-14T14:16:30;6.22;;;3.45;;
65998;SDS011;52766;56.008;37.440;2023-06-14T14:18:58;5.80;;;3.10;;
65998;SDS011;52766;56.008;37.440;2023-06-14T14:21:25;4.68;;;2.90;;
65998;SDS011;52766;56.008;37.440;2023-06-14T14:23:51;4.65;;;2.88;;
65998;SDS011;52766;56.008;37.440;2023-06-14T14:26:19;6.97;;;3.13;;
65998;SDS011;52766;56.008;37.440;2023-06-14T14:31:51;5.18;;;3.22;;
65998;SDS011;52766;56.008;37.440;2023-06-14T14:34:26;7.45;;;3.30;;
65998;SDS011;52766;56.008;37.440;2023-06-14T14:36:53;6.07;;;2.75;;
65998;SDS011;52766;56.008;37.440;2023-06-14T14:39:27;6.47;;;3.45;;
65998;SDS011;52766;56.008;37.440;2023-06-14T14:41:54;5.60;;;3.03;;
65998;SDS011;52766;56.008;37.440;2023-06-14T14:44:24;5.57;;;4.32;;
65998;SDS011;52766;56.008;37.440;2023-06-14T14:46:54;5.07;;;3.03;;
65998;SDS011;52766;56.008;37.440;2023-06-14T14:49:33;5.55;;;3.25;;
65998;SDS011;52766;56.008;37.440;2023-06-14T14:52:07;5.18;;;2.90;;
65998;SDS011;52766;56.008;37.440;2023-06-14T14:54:38;5.78;;;3.17;;
65998;SDS011;52766;56.008;37.440;2023-06-14T14:57:08;7.05;;;3.35;;
65998;SDS011;52766;56.008;37.440;2023-06-14T14:59:34;21.83;;;15.90;;
65998;SDS011;52766;56.008;37.440;2023-06-14T15:02:07;16.92;;;12.90;;
65998;SDS011;52766;56.008;37.440;2023-06-14T15:04:38;10.32;;;4.75;;
65998;SDS011;52766;56.008;37.440;2023-06-14T15:07:09;5.15;;;3.33;;
65998;SDS011;52766;56.008;37.440;2023-06-14T15:09:38;7.10;;;3.40;;
65998;SDS011;52766;56.008;37.440;2023-06-14T15:12:12;6.25;;;3.17;;
65998;SDS011;52766;56.008;37.440;2023-06-14T15:14:45;7.05;;;3.42;;
65998;SDS011;52766;56.008;37.440;2023-06-14T15:17:15;7.68;;;3.80;;
65998;SDS011;52766;56.008;37.440;2023-06-14T15:19:47;9.23;;;2.90;;
65998;SDS011;52766;56.008;37.440;2023-06-14T15:22:25;7.03;;;3.38;;
65998;SDS011;52766;56.008;37.440;2023-06-14T15:31:14;8.60;;;3.35;;
65998;SDS011;52766;56.008;37.440;2023-06-14T15:33:46;5.45;;;2.50;;
65998;SDS011;52766;56.008;37.440;2023-06-14T15:36:17;4.20;;;3.10;;
65998;SDS011;52766;56.008;37.440;2023-06-14T15:38:51;5.75;;;3.13;;
65998;SDS011;52766;56.008;37.440;2023-06-14T15:41:17;4.00;;;2.95;;
65998;SDS011;52766;56.008;37.440;2023-06-14T15:43:52;5.70;;;2.78;;
65998;SDS011;52766;56.008;37.440;2023-06-14T15:46:21;7.45;;;3.55;;
65998;SDS011;52766;56.008;37.440;2023-06-14T15:48:53;4.93;;;2.80;;
65998;SDS011;52766;56.008;37.440;2023-06-14T15:51:27;4.78;;;3.00;;
65998;SDS011;52766;56.008;37.440;2023-06-14T15:54:03;5.20;;;3.38;;
65998;SDS011;52766;56.008;37.440;2023-06-14T15:56:34;6.28;;;3.40;;
65998;SDS011;52766;56.008;37.440;2023-06-14T15:58:59;5.45;;;3.20;;
65998;SDS011;52766;56.008;37.440;2023-06-14T16:01:30;6.68;;;3.50;;
65998;SDS011;52766;56.008;37.440;2023-06-14T16:04:01;6.43;;;3.22;;
65998;SDS011;52766;56.008;37.440;2023-06-14T16:06:38;7.63;;;3.28;;
65998;SDS011;52766;56.008;37.440;2023-06-14T16:09:26;4.70;;;3.10;;
65998;SDS011;52766;56.008;37.440;2023-06-14T16:12:18;6.28;;;3.60;;
65998;SDS011;52766;56.008;37.440;2023-06-14T16:14:50;4.78;;;3.22;;
65998;SDS011;52766;56.008;37.440;2023-06-14T16:17:21;4.13;;;2.60;;
65998;SDS011;52766;56.008;37.440;2023-06-14T16:19:49;4.90;;;3.00;;
65998;SDS011;52766;56.008;37.440;2023-06-14T16:22:18;4.72;;;3.05;;
65998;SDS011;52766;56.008;37.440;2023-06-14T16:24:51;4.78;;;3.00;;
65998;SDS011;52766;56.008;37.440;2023-06-14T16:27:21;7.00;;;3.45;;
65998;SDS011;52766;56.008;37.440;2023-06-14T16:29:49;7.20;;;3.67;;
65998;SDS011;52766;56.008;37.440;2023-06-14T16:32:19;6.82;;;2.88;;
65998;SDS011;52766;56.008;37.440;2023-06-14T16:35:13;7.28;;;3.33;;
65998;SDS011;52766;56.008;37.440;2023-06-14T16:37:42;6.32;;;3.80;;
65998;SDS011;52766;56.008;37.440;2023-06-14T16:40:08;7.63;;;3.20;;
65998;SDS011;52766;56.008;37.440;2023-06-14T16:42:40;5.75;;;3.33;;
65998;SDS011;52766;56.008;37.440;2023-06-14T16:45:16;6.18;;;3.17;;
65998;SDS011;52766;56.008;37.440;2023-06-14T16:47:51;7.75;;;3.33;;
65998;SDS011;52766;56.008;37.440;2023-06-14T16:50:17;7.00;;;3.20;;
65998;SDS011;52766;56.008;37.440;2023-06-14T16:56:27;6.47;;;3.03;;
65998;SDS011;52766;56.008;37.440;2023-06-14T16:59:02;6.47;;;3.25;;
65998;SDS011;52766;56.008;37.440;2023-06-14T17:16:54;7.07;;;3.70;;
65998;SDS011;52766;56.008;37.440;2023-06-14T17:19:57;10.48;;;3.58;;
65998;SDS011;52766;56.008;37.440;2023-06-14T17:22:33;8.38;;;4.10;;
65998;SDS011;52766;56.008;37.440;2023-06-14T17:25:18;9.25;;;4.28;;
65998;SDS011;52766;56.008;37.440;2023-06-14T17:38:48;8.52;;;4.70;;
65998;SDS011;52766;56.008;37.440;2023-06-14T17:41:20;10.93;;;5.00;;
65998;SDS011;52766;56.008;37.440;2023-06-14T17:44:27;9.40;;;4.53;;
65998;SDS011;52766;56.008;37.440;2023-06-14T17:50:36;8.30;;;3.95;;
65998;SDS011;52766;56.008;37.440;2023-06-14T17:56:20;13.00;;;4.97;;